createdAt,value
2023-07-29T00:01:51.017Z,99.90
2023-07-29T00:04:18.468Z,99.90
2023-07-29T00:06:48.019Z,99.90
2023-07-29T00:09:15.199Z,99.90
2023-07-29T00:11:42.302Z,99.90
2023-07-29T00:14:09.623Z,99.90
2023-07-29T00:16:37.944Z,99.90
2023-07-29T00:19:05.769Z,99.90
2023-07-29T00:21:32.862Z,99.90
2023-07-29T00:24:02.329Z,99.90
2023-07-29T00:26:32.068Z,99.90
2023-07-29T00:28:59.966Z,99.90
2023-07-29T00:31:27.034Z,99.90
2023-07-29T00:33:55.892Z,99.90
2023-07-29T00:36:22.910Z,99.90
2023-07-29T00:38:50.124Z,99.90
2023-07-29T00:41:17.224Z,99.90
2023-07-29T00:43:44.549Z,99.90
2023-07-29T00:46:14.227Z,99.90
2023-07-29T00:48:41.921Z,99.90
2023-07-29T00:51:09.234Z,99.90
2023-07-29T00:53:36.664Z,99.90
2023-07-29T00:56:04.360Z,99.90
2023-07-29T00:58:31.749Z,99.90
2023-07-29T01:00:59.108Z,99.90
2023-07-29T01:03:27.719Z,99.90
2023-07-29T01:06:18.952Z,99.90
2023-07-29T01:09:04.953Z,99.90
2023-07-29T01:11:59.159Z,99.90
2023-07-29T01:15:20.433Z,99.90
2023-07-29T01:17:57.136Z,99.90
2023-07-29T01:20:27.033Z,99.90
2023-07-29T01:22:54.290Z,99.90
2023-07-29T01:25:21.492Z,99.90
2023-07-29T01:27:52.985Z,99.90
2023-07-29T01:30:30.069Z,99.90
2023-07-29T01:33:26.609Z,99.90
2023-07-29T01:36:04.466Z,99.90
2023-07-29T01:38:39.511Z,99.90
2023-07-29T01:41:10.075Z,99.90
2023-07-29T01:43:45.567Z,99.90
2023-07-29T01:46:13.570Z,99.90
2023-07-29T01:48:41.581Z,99.90
2023-07-29T01:51:10.067Z,99.90
2023-07-29T01:53:38.937Z,99.90
2023-07-29T01:56:06.086Z,99.90
2023-07-29T01:58:35.013Z,99.90
2023-07-29T02:01:02.311Z,99.90
2023-07-29T02:03:29.570Z,99.90
2023-07-29T02:05:56.753Z,99.90
2023-07-29T02:08:23.825Z,99.90
2023-07-29T02:10:51.109Z,99.90
2023-07-29T02:13:18.409Z,99.90
2023-07-29T02:15:45.659Z,99.90
2023-07-29T02:18:12.910Z,99.90
2023-07-29T02:20:40.259Z,99.90
2023-07-29T02:23:07.446Z,99.90
2023-07-29T02:25:37.836Z,99.90
2023-07-29T02:28:05.435Z,99.90
2023-07-29T02:30:32.832Z,99.90
2023-07-29T02:33:02.450Z,99.90
2023-07-29T02:35:29.937Z,99.90
2023-07-29T02:37:57.430Z,99.90
2023-07-29T02:40:27.882Z,99.90
2023-07-29T02:42:55.270Z,99.90
2023-07-29T02:45:22.825Z,99.90
2023-07-29T02:47:50.032Z,99.90
2023-07-29T02:50:17.866Z,99.90
2023-07-29T02:52:45.113Z,99.90
2023-07-29T02:55:12.127Z,99.90
2023-07-29T02:57:39.276Z,99.90
2023-07-29T03:00:08.427Z,99.90
2023-07-29T03:02:36.084Z,99.90
2023-07-29T03:05:03.429Z,99.90
2023-07-29T03:07:30.949Z,99.90
2023-07-29T03:09:57.991Z,99.90
2023-07-29T03:12:25.248Z,99.90
2023-07-29T03:14:52.336Z,99.90
2023-07-29T03:17:19.733Z,99.90
2023-07-29T03:19:46.842Z,99.90
2023-07-29T03:22:14.117Z,99.90
2023-07-29T03:24:41.201Z,99.90
2023-07-29T03:27:10.681Z,99.90
2023-07-29T03:29:40.246Z,99.90
2023-07-29T03:32:08.070Z,99.90
2023-07-29T03:34:35.407Z,99.90
2023-07-29T03:37:02.928Z,99.90
2023-07-29T03:39:32.528Z,99.90
2023-07-29T03:41:59.994Z,99.90
2023-07-29T03:44:27.059Z,99.90
2023-07-29T03:46:54.298Z,99.90
2023-07-29T03:49:21.538Z,99.90
2023-07-29T03:51:48.898Z,99.90
2023-07-29T03:54:16.060Z,99.90
2023-07-29T03:56:43.250Z,99.90
2023-07-29T03:59:10.434Z,99.90
2023-07-29T04:01:40.000Z,99.90
2023-07-29T04:04:07.485Z,99.90
2023-07-29T04:06:35.195Z,99.90
2023-07-29T04:09:02.732Z,99.90
2023-07-29T04:11:30.176Z,99.90
2023-07-29T04:13:57.596Z,99.90
2023-07-29T04:16:24.877Z,99.90
2023-07-29T04:18:52.115Z,99.90
2023-07-29T04:21:19.214Z,99.90
2023-07-29T04:23:46.464Z,99.90
2023-07-29T04:26:13.632Z,99.90
2023-07-29T04:28:40.949Z,99.90
2023-07-29T04:31:08.632Z,99.90
2023-07-29T04:33:37.360Z,99.90
2023-07-29T04:36:07.694Z,99.90
2023-07-29T04:38:35.668Z,99.90
2023-07-29T04:41:03.471Z,99.90
2023-07-29T04:43:33.275Z,99.90
2023-07-29T04:46:01.052Z,99.90
2023-07-29T04:48:28.327Z,99.90
2023-07-29T04:50:55.503Z,99.90
2023-07-29T04:53:22.819Z,99.90
2023-07-29T04:55:49.939Z,99.90
2023-07-29T04:58:17.420Z,99.90
2023-07-29T05:00:44.686Z,99.90
2023-07-29T05:03:12.338Z,99.90
2023-07-29T05:05:42.411Z,99.90
2023-07-29T05:08:09.898Z,99.90
2023-07-29T05:10:39.771Z,99.90
2023-07-29T05:13:07.129Z,99.90
2023-07-29T05:15:35.479Z,99.90
2023-07-29T05:18:04.459Z,99.90
2023-07-29T05:20:32.220Z,99.90
2023-07-29T05:22:59.485Z,99.90
2023-07-29T05:25:26.599Z,99.90
2023-07-29T05:27:53.968Z,99.90
2023-07-29T05:30:21.176Z,99.90
2023-07-29T05:32:48.578Z,99.90
2023-07-29T05:35:16.353Z,99.90
2023-07-29T05:37:43.926Z,99.90
2023-07-29T05:40:11.250Z,99.90
2023-07-29T05:42:40.571Z,99.90
2023-07-29T05:45:09.170Z,99.90
2023-07-29T05:47:36.633Z,99.90
2023-07-29T05:50:06.023Z,99.90
2023-07-29T05:52:34.417Z,99.90
2023-07-29T05:55:01.900Z,99.90
2023-07-29T05:57:30.071Z,99.90
2023-07-29T05:59:57.466Z,99.90
2023-07-29T06:02:24.713Z,99.90
2023-07-29T06:04:53.294Z,99.90
2023-07-29T06:07:20.527Z,99.90
2023-07-29T06:09:47.857Z,99.90
2023-07-29T06:12:17.266Z,99.90
2023-07-29T06:14:44.377Z,99.90
2023-07-29T06:17:12.661Z,99.90
2023-07-29T06:19:40.086Z,99.90
2023-07-29T06:22:07.601Z,99.90
2023-07-29T06:24:34.907Z,99.90
2023-07-29T06:27:02.116Z,99.90
2023-07-29T06:29:29.250Z,99.90
2023-07-29T06:31:56.444Z,99.90
2023-07-29T06:34:26.587Z,99.90
2023-07-29T06:36:54.293Z,99.90
2023-07-29T06:39:21.368Z,99.90
2023-07-29T06:41:51.283Z,99.90
2023-07-29T06:44:19.424Z,99.90
2023-07-29T06:46:46.581Z,99.90
2023-07-29T06:49:13.809Z,99.90
2023-07-29T06:51:43.900Z,99.90
2023-07-29T06:54:11.038Z,99.90
2023-07-29T06:56:39.773Z,99.90
2023-07-29T06:59:07.068Z,99.90
2023-07-29T07:01:35.501Z,99.90
2023-07-29T07:04:02.831Z,99.90
2023-07-29T07:06:30.062Z,99.90
2023-07-29T07:09:00.097Z,99.90
2023-07-29T07:11:27.292Z,99.90
2023-07-29T07:13:54.341Z,99.90
2023-07-29T07:16:21.771Z,99.90
2023-07-29T07:18:48.938Z,99.90
2023-07-29T07:21:16.158Z,99.90
2023-07-29T07:23:43.169Z,99.90
2023-07-29T07:26:10.281Z,99.90
2023-07-29T07:28:39.728Z,99.90
2023-07-29T07:31:06.742Z,99.90
2023-07-29T07:33:33.859Z,99.90
2023-07-29T07:36:01.036Z,99.90
2023-07-29T07:38:28.115Z,99.90
2023-07-29T07:40:58.029Z,99.90
2023-07-29T07:43:25.895Z,99.90
2023-07-29T07:46:00.404Z,99.90
2023-07-29T07:48:29.283Z,99.90
2023-07-29T07:50:56.466Z,99.90
2023-07-29T07:53:23.711Z,99.90
2023-07-29T07:55:53.282Z,99.90
2023-07-29T07:58:20.754Z,99.90
2023-07-29T08:00:47.938Z,99.90
2023-07-29T08:03:15.260Z,99.90
2023-07-29T08:05:42.440Z,99.90
2023-07-29T08:08:09.513Z,99.90
2023-07-29T08:10:36.922Z,99.90
2023-07-29T08:13:08.084Z,99.90
2023-07-29T08:15:35.338Z,99.90
2023-07-29T08:18:02.606Z,99.90
2023-07-29T08:20:29.793Z,99.90
2023-07-29T08:22:56.848Z,99.90
2023-07-29T08:25:26.000Z,99.90
2023-07-29T08:27:53.199Z,99.90
2023-07-29T08:30:26.524Z,99.90
2023-07-29T08:32:54.395Z,99.70
2023-07-29T08:35:21.560Z,99.50
2023-07-29T08:37:48.614Z,99.40
2023-07-29T08:40:15.725Z,99.40
2023-07-29T08:42:46.490Z,99.50
2023-07-29T08:45:15.541Z,99.70
2023-07-29T08:47:42.989Z,99.70
2023-07-29T08:50:12.722Z,99.60
2023-07-29T08:52:45.537Z,99.90
2023-07-29T08:55:12.871Z,99.90
2023-07-29T08:57:40.135Z,99.90
2023-07-29T09:00:08.537Z,99.90
2023-07-29T09:02:35.804Z,99.90
2023-07-29T09:05:03.634Z,99.90
2023-07-29T09:07:31.546Z,99.60
2023-07-29T09:09:58.653Z,99.90
2023-07-29T09:12:25.883Z,99.50
2023-07-29T09:14:56.033Z,99.10
2023-07-29T09:17:24.170Z,98.10
2023-07-29T09:19:52.617Z,98.20
2023-07-29T09:22:21.761Z,98.10
2023-07-29T09:24:49.460Z,97.50
2023-07-29T09:27:32.845Z,96.90
2023-07-29T09:30:00.542Z,95.70
2023-07-29T09:32:29.394Z,96.30
2023-07-29T09:34:56.676Z,95.80
2023-07-29T09:37:25.615Z,95.60
2023-07-29T09:39:53.402Z,95.00
2023-07-29T09:42:24.631Z,94.60
2023-07-29T09:44:51.969Z,93.80
2023-07-29T09:47:24.676Z,93.80
2023-07-29T09:49:53.624Z,93.00
2023-07-29T09:52:24.130Z,93.00
2023-07-29T09:54:52.055Z,92.80
2023-07-29T09:57:20.507Z,92.60
2023-07-29T09:59:58.164Z,92.70
2023-07-29T10:02:28.777Z,92.60
2023-07-29T10:04:58.317Z,93.20
2023-07-29T10:07:26.518Z,93.20
2023-07-29T10:09:56.528Z,93.50
2023-07-29T10:12:26.192Z,93.20
2023-07-29T10:14:54.516Z,94.00
2023-07-29T10:17:22.898Z,94.00
2023-07-29T10:19:51.217Z,94.10
2023-07-29T10:22:22.684Z,94.20
2023-07-29T10:24:52.605Z,93.90
2023-07-29T10:27:23.577Z,94.20
2023-07-29T10:29:52.039Z,94.10
2023-07-29T10:32:30.083Z,94.30
2023-07-29T10:34:57.590Z,93.90
2023-07-29T10:37:25.405Z,93.80
2023-07-29T10:39:57.070Z,93.40
2023-07-29T10:42:24.690Z,92.50
2023-07-29T10:44:54.194Z,92.60
2023-07-29T10:47:24.255Z,92.20
2023-07-29T10:50:00.657Z,92.00
2023-07-29T10:52:35.541Z,91.70
2023-07-29T10:55:05.472Z,91.40
2023-07-29T10:57:34.906Z,91.40
2023-07-29T11:00:04.348Z,91.00
2023-07-29T11:02:38.405Z,90.70
2023-07-29T11:05:19.688Z,90.30
2023-07-29T11:07:49.244Z,90.20
2023-07-29T11:10:17.194Z,90.80
2023-07-29T11:12:53.277Z,91.00
2023-07-29T11:15:29.527Z,90.70
2023-07-29T11:18:03.745Z,90.90
2023-07-29T11:20:34.632Z,91.10
2023-07-29T11:23:04.355Z,91.70
2023-07-29T11:25:34.594Z,92.10
2023-07-29T11:28:05.622Z,92.60
2023-07-29T11:30:35.000Z,93.10
2023-07-29T11:33:02.532Z,93.70
2023-07-29T11:35:29.759Z,94.00
2023-07-29T11:38:00.031Z,94.90
2023-07-29T11:40:27.140Z,96.10
2023-07-29T11:42:55.633Z,97.10
2023-07-29T11:45:32.437Z,97.60
2023-07-29T11:48:03.702Z,97.70
2023-07-29T11:50:31.075Z,98.10
2023-07-29T11:52:58.985Z,98.10
2023-07-29T11:55:26.602Z,97.40
2023-07-29T11:57:54.413Z,97.10
2023-07-29T12:00:22.825Z,95.70
2023-07-29T12:02:51.915Z,94.60
2023-07-29T12:05:23.631Z,94.00
2023-07-29T12:07:50.992Z,94.00
2023-07-29T12:10:20.146Z,94.00
2023-07-29T12:12:51.691Z,94.10
2023-07-29T12:15:28.654Z,94.90
2023-07-29T12:17:58.841Z,95.20
2023-07-29T12:20:28.727Z,95.00
2023-07-29T12:22:59.045Z,95.80
2023-07-29T12:25:28.299Z,97.00
2023-07-29T12:27:55.533Z,98.00
2023-07-29T12:30:26.122Z,98.70
2023-07-29T12:32:53.793Z,99.30
2023-07-29T12:35:21.197Z,99.90
2023-07-29T12:37:48.424Z,99.90
2023-07-29T12:40:26.352Z,99.90
2023-07-29T12:42:54.790Z,99.90
2023-07-29T12:45:24.362Z,99.90
2023-07-29T12:47:52.720Z,99.90
2023-07-29T12:50:19.822Z,99.90
2023-07-29T12:52:47.007Z,99.90
2023-07-29T12:55:14.712Z,99.90
2023-07-29T12:57:44.522Z,99.90
2023-07-29T13:00:13.583Z,99.90
2023-07-29T13:02:40.841Z,99.90
2023-07-29T13:05:13.519Z,99.90
2023-07-29T13:07:42.128Z,99.90
2023-07-29T13:10:13.648Z,99.90
2023-07-29T13:12:41.614Z,99.90
2023-07-29T13:15:09.156Z,99.90
2023-07-29T13:17:36.688Z,99.90
2023-07-29T13:20:04.952Z,99.90
2023-07-29T13:22:32.226Z,99.90
2023-07-29T13:24:59.532Z,99.90
2023-07-29T13:27:27.983Z,99.90
2023-07-29T13:29:55.411Z,99.90
2023-07-29T13:32:22.644Z,99.90
2023-07-29T13:34:50.202Z,99.90
2023-07-29T13:37:17.428Z,99.90
2023-07-29T13:39:44.658Z,99.90
2023-07-29T13:42:11.988Z,99.90
2023-07-29T13:44:42.302Z,99.90
2023-07-29T13:47:09.481Z,99.90
2023-07-29T13:49:36.676Z,99.90
2023-07-29T13:52:03.984Z,99.90
2023-07-29T13:54:31.310Z,99.90
2023-07-29T13:56:58.487Z,99.90
2023-07-29T13:59:25.534Z,99.90
2023-07-29T14:01:52.851Z,99.90
2023-07-29T14:04:20.073Z,99.90
2023-07-29T14:06:49.825Z,99.90
2023-07-29T14:09:19.628Z,99.90
2023-07-29T14:11:46.637Z,99.90
2023-07-29T14:14:13.704Z,99.90
2023-07-29T14:16:40.939Z,99.90
2023-07-29T14:19:08.242Z,99.90
2023-07-29T14:21:35.402Z,99.90
2023-07-29T14:24:02.450Z,99.90
2023-07-29T14:26:29.502Z,99.90
2023-07-29T14:28:57.008Z,99.90
2023-07-29T14:31:24.352Z,99.90
2023-07-29T14:33:51.491Z,99.90
2023-07-29T14:36:18.512Z,99.90
2023-07-29T14:38:45.798Z,99.90
2023-07-29T14:41:12.787Z,99.90
2023-07-29T14:43:40.239Z,99.90
2023-07-29T14:46:07.717Z,99.90
2023-07-29T14:48:34.791Z,99.90
2023-07-29T14:51:01.839Z,99.20
2023-07-29T14:53:29.349Z,98.50
2023-07-29T14:55:56.359Z,98.90
2023-07-29T14:58:24.234Z,98.30
2023-07-29T15:00:51.415Z,98.10
2023-07-29T15:03:18.951Z,98.30
2023-07-29T15:05:46.336Z,98.00
2023-07-29T15:08:13.495Z,99.00
2023-07-29T15:10:40.493Z,99.90
2023-07-29T15:13:07.656Z,99.90
2023-07-29T15:15:34.861Z,99.30
2023-07-29T15:18:02.088Z,98.80
2023-07-29T15:20:29.366Z,98.30
2023-07-29T15:22:56.631Z,97.90
2023-07-29T15:25:23.979Z,97.50
2023-07-29T15:27:51.340Z,97.90
2023-07-29T15:30:18.553Z,98.20
2023-07-29T15:32:46.153Z,98.40
2023-07-29T15:35:13.784Z,98.10
2023-07-29T15:37:41.279Z,97.50
2023-07-29T15:40:09.610Z,97.30
2023-07-29T15:42:36.669Z,97.70
2023-07-29T15:45:04.126Z,97.50
2023-07-29T15:47:31.731Z,97.40
2023-07-29T15:49:58.991Z,97.30
2023-07-29T15:52:28.122Z,97.10
2023-07-29T15:54:56.174Z,96.50
2023-07-29T15:57:23.573Z,96.10
2023-07-29T15:59:50.668Z,95.60
2023-07-29T16:02:17.650Z,95.50
2023-07-29T16:04:44.713Z,95.10
2023-07-29T16:07:11.751Z,95.00
2023-07-29T16:09:41.704Z,95.00
2023-07-29T16:12:09.572Z,95.20
2023-07-29T16:14:36.634Z,95.30
2023-07-29T16:17:03.880Z,95.60
2023-07-29T16:19:32.954Z,95.90
2023-07-29T16:22:00.928Z,96.20
2023-07-29T16:24:27.936Z,96.30
2023-07-29T16:26:55.090Z,96.70
2023-07-29T16:29:22.697Z,96.90
2023-07-29T16:31:52.694Z,97.90
2023-07-29T16:34:20.408Z,98.40
2023-07-29T16:36:48.100Z,98.00
2023-07-29T16:39:15.364Z,97.80
2023-07-29T16:42:04.344Z,97.50
2023-07-29T16:44:29.707Z,97.30
2023-07-29T16:46:56.732Z,97.20
2023-07-29T16:49:26.152Z,97.20
2023-07-29T16:51:53.481Z,97.40
2023-07-29T16:54:24.216Z,97.80
2023-07-29T16:56:52.262Z,97.90
2023-07-29T16:59:19.683Z,97.50
2023-07-29T17:01:47.066Z,98.20
2023-07-29T17:04:14.408Z,98.40
2023-07-29T17:06:41.554Z,98.50
2023-07-29T17:09:08.768Z,98.40
2023-07-29T17:11:36.060Z,99.10
2023-07-29T17:14:03.332Z,99.40
2023-07-29T17:16:30.702Z,99.70
2023-07-29T17:18:57.949Z,99.90
2023-07-29T17:21:24.997Z,99.90
2023-07-29T17:23:52.401Z,99.90
2023-07-29T17:26:19.519Z,99.90
2023-07-29T17:28:49.860Z,99.90
2023-07-29T17:31:18.051Z,99.90
2023-07-29T17:33:45.130Z,99.90
2023-07-29T17:36:12.387Z,99.90
2023-07-29T17:38:42.148Z,99.90
2023-07-29T17:41:09.246Z,99.90
2023-07-29T17:43:36.698Z,99.90
2023-07-29T17:46:03.981Z,99.90
2023-07-29T17:48:31.233Z,99.90
2023-07-29T17:50:58.341Z,99.90
2023-07-29T17:53:25.391Z,99.90
2023-07-29T17:55:52.512Z,99.90
2023-07-29T17:58:19.651Z,99.90
2023-07-29T18:00:46.811Z,99.90
2023-07-29T18:03:14.197Z,99.90
2023-07-29T18:05:41.539Z,99.90
2023-07-29T18:08:08.776Z,99.90
2023-07-29T18:10:41.968Z,99.90
2023-07-29T18:13:09.309Z,99.90
2023-07-29T18:15:36.766Z,99.90
2023-07-29T18:18:04.931Z,99.90
2023-07-29T18:20:32.649Z,99.90
2023-07-29T18:23:03.989Z,99.40
2023-07-29T18:25:31.359Z,99.90
2023-07-29T18:27:58.615Z,99.90
2023-07-29T18:30:25.863Z,99.90
2023-07-29T18:32:52.957Z,99.90
2023-07-29T18:35:20.344Z,99.90
2023-07-29T18:37:53.519Z,99.90
2023-07-29T18:40:20.766Z,99.90
2023-07-29T18:42:47.987Z,99.60
2023-07-29T18:45:16.863Z,99.40
2023-07-29T18:47:44.241Z,98.70
2023-07-29T18:50:11.536Z,99.00
2023-07-29T18:52:41.400Z,99.70
2023-07-29T18:55:09.169Z,99.50
2023-07-29T18:57:36.544Z,99.50
2023-07-29T19:00:05.419Z,99.30
2023-07-29T19:02:33.182Z,98.80
2023-07-29T19:05:01.721Z,98.60
2023-07-29T19:07:28.948Z,98.30
2023-07-29T19:09:58.882Z,97.80
2023-07-29T19:12:26.124Z,96.90
2023-07-29T19:14:53.277Z,96.90
2023-07-29T19:17:20.614Z,96.80
2023-07-29T19:19:48.557Z,96.60
2023-07-29T19:22:15.876Z,96.70
2023-07-29T19:24:43.341Z,96.60
2023-07-29T19:27:10.779Z,96.50
2023-07-29T19:29:40.039Z,96.60
2023-07-29T19:32:08.995Z,96.50
2023-07-29T19:34:36.156Z,96.60
2023-07-29T19:37:03.393Z,96.60
2023-07-29T19:39:30.670Z,96.70
2023-07-29T19:41:57.948Z,97.00
2023-07-29T19:44:25.059Z,96.90
2023-07-29T19:46:52.280Z,97.00
2023-07-29T19:49:19.404Z,96.90
2023-07-29T19:51:46.558Z,97.00
2023-07-29T19:54:14.236Z,96.80
2023-07-29T19:56:42.010Z,97.90
2023-07-29T19:59:09.177Z,97.40
2023-07-29T20:01:36.794Z,97.40
2023-07-29T20:04:07.534Z,97.60
2023-07-29T20:06:34.898Z,97.60
2023-07-29T20:09:02.109Z,97.70
2023-07-29T20:11:29.525Z,97.80
2023-07-29T20:13:57.638Z,98.30
2023-07-29T20:16:25.054Z,99.00
2023-07-29T20:18:52.456Z,98.60
2023-07-29T20:21:19.719Z,98.60
2023-07-29T20:23:49.523Z,98.40
2023-07-29T20:26:16.585Z,98.50
2023-07-29T20:28:43.944Z,98.50
2023-07-29T20:31:11.168Z,98.50
2023-07-29T20:33:51.354Z,99.10
2023-07-29T20:36:21.253Z,99.00
2023-07-29T20:38:48.369Z,99.10
2023-07-29T20:41:16.679Z,99.50
2023-07-29T20:43:43.827Z,99.10
2023-07-29T20:46:22.659Z,99.20
2023-07-29T20:48:50.734Z,99.80
2023-07-29T20:51:22.311Z,99.90
2023-07-29T20:53:49.480Z,99.60
2023-07-29T20:56:17.020Z,99.70
2023-07-29T20:58:44.005Z,99.80
2023-07-29T21:01:11.514Z,99.90
2023-07-29T21:03:39.506Z,99.90
2023-07-29T21:06:10.103Z,99.90
2023-07-29T21:08:37.719Z,99.90
2023-07-29T21:11:07.648Z,99.90
2023-07-29T21:13:35.901Z,99.90
2023-07-29T21:16:03.258Z,99.90
2023-07-29T21:18:30.350Z,99.90
2023-07-29T21:20:57.520Z,99.90
2023-07-29T21:23:24.619Z,99.90
2023-07-29T21:25:52.681Z,99.90
2023-07-29T21:28:20.666Z,99.90
2023-07-29T21:30:47.987Z,99.90
2023-07-29T21:33:17.670Z,99.90
2023-07-29T21:35:44.824Z,99.90
2023-07-29T21:38:28.261Z,99.90
2023-07-29T21:40:56.522Z,99.90
2023-07-29T21:43:23.785Z,99.90
2023-07-29T21:45:50.879Z,99.90
2023-07-29T21:48:18.107Z,99.90
2023-07-29T21:50:45.253Z,99.90
2023-07-29T21:53:12.274Z,99.90
2023-07-29T21:55:42.755Z,99.90
2023-07-29T21:58:09.864Z,99.90
2023-07-29T22:00:37.446Z,99.90
2023-07-29T22:03:05.099Z,99.90
2023-07-29T22:05:32.858Z,99.90
2023-07-29T22:08:02.343Z,99.90
2023-07-29T22:10:31.735Z,99.90
2023-07-29T22:12:59.548Z,99.90
2023-07-29T22:15:26.872Z,99.90
2023-07-29T22:17:54.100Z,99.90
2023-07-29T22:20:21.356Z,99.90
2023-07-29T22:22:48.452Z,99.90
2023-07-29T22:25:15.620Z,99.90
2023-07-29T22:27:42.631Z,99.90
2023-07-29T22:30:10.222Z,99.90
2023-07-29T22:32:39.833Z,99.90
2023-07-29T22:35:07.448Z,99.90
2023-07-29T22:37:34.492Z,99.90
2023-07-29T22:40:01.541Z,99.90
2023-07-29T22:42:30.463Z,99.90
2023-07-29T22:44:57.597Z,99.90
2023-07-29T22:47:24.587Z,99.90
2023-07-29T22:49:51.632Z,99.90
2023-07-29T22:52:18.645Z,99.90
2023-07-29T22:54:45.631Z,99.90
2023-07-29T22:57:12.756Z,99.90
2023-07-29T22:59:40.029Z,99.90
2023-07-29T23:02:07.114Z,99.90
2023-07-29T23:04:34.225Z,99.90
2023-07-29T23:07:01.781Z,99.90
2023-07-29T23:09:29.166Z,99.90
2023-07-29T23:12:21.668Z,99.90
2023-07-29T23:14:49.106Z,99.90
2023-07-29T23:17:16.101Z,99.90
2023-07-29T23:19:43.147Z,99.90
2023-07-29T23:22:10.201Z,99.90
2023-07-29T23:24:38.383Z,99.90
2023-07-29T23:27:05.977Z,99.90
2023-07-29T23:29:33.150Z,99.90
2023-07-29T23:32:00.128Z,99.90
2023-07-29T23:34:27.263Z,99.90
2023-07-29T23:36:54.382Z,99.90
2023-07-29T23:39:21.442Z,99.90
2023-07-29T23:41:48.480Z,99.90
2023-07-29T23:44:15.620Z,99.90
2023-07-29T23:46:42.618Z,99.90
2023-07-29T23:49:09.685Z,99.90
2023-07-29T23:51:36.958Z,99.90
2023-07-29T23:54:05.053Z,99.90
2023-07-29T23:56:32.031Z,99.90
2023-07-29T23:58:59.113Z,99.90
